createdAt,value
2022-10-09T00:01:26.456Z,17.18
2022-10-09T00:06:34.961Z,14.85
2022-10-09T00:11:37.673Z,15.81
2022-10-09T00:16:40.391Z,17.00
2022-10-09T00:21:43.136Z,14.94
2022-10-09T00:26:48.705Z,16.04
2022-10-09T00:31:51.419Z,15.94
2022-10-09T00:36:54.112Z,14.23
2022-10-09T00:41:56.905Z,16.19
2022-10-09T00:46:59.693Z,15.92
2022-10-09T00:52:07.306Z,14.11
2022-10-09T00:57:10.912Z,16.08
2022-10-09T01:02:13.762Z,15.45
2022-10-09T01:07:22.767Z,14.79
2022-10-09T01:12:31.716Z,16.56
2022-10-09T01:17:49.503Z,14.90
2022-10-09T01:23:31.105Z,14.45
2022-10-09T01:28:36.238Z,16.56
2022-10-09T01:33:40.297Z,15.01
2022-10-09T01:38:44.555Z,14.33
2022-10-09T01:43:47.262Z,16.24
2022-10-09T01:49:24.035Z,15.10
2022-10-09T01:54:57.211Z,14.27
2022-10-09T02:00:04.468Z,16.41
2022-10-09T02:05:10.235Z,15.14
2022-10-09T02:10:15.914Z,14.04
2022-10-09T02:15:20.442Z,15.93
2022-10-09T02:20:32.707Z,15.14
2022-10-09T02:25:36.087Z,14.20
2022-10-09T02:30:50.901Z,15.76
2022-10-09T02:35:53.906Z,15.14
2022-10-09T02:40:59.202Z,14.16
2022-10-09T02:46:01.986Z,15.76
2022-10-09T02:51:05.126Z,14.84
2022-10-09T02:56:07.877Z,13.90
2022-10-09T03:01:10.613Z,15.42
2022-10-09T03:06:16.617Z,15.18
2022-10-09T03:11:22.084Z,13.28
2022-10-09T03:16:26.396Z,14.59
2022-10-09T03:21:29.442Z,15.53
2022-10-09T03:26:32.499Z,14.64
2022-10-09T03:31:52.787Z,13.48
2022-10-09T03:36:56.238Z,15.09
2022-10-09T03:41:58.937Z,14.87
2022-10-09T03:47:01.726Z,12.79
2022-10-09T03:52:04.629Z,13.93
2022-10-09T03:57:07.321Z,15.25
2022-10-09T04:02:10.017Z,14.73
2022-10-09T04:07:12.770Z,13.63
2022-10-09T04:12:15.726Z,14.79
2022-10-09T04:17:18.413Z,14.54
2022-10-09T04:22:21.083Z,12.97
2022-10-09T04:27:23.779Z,14.61
2022-10-09T04:32:26.817Z,15.15
2022-10-09T04:37:29.486Z,13.52
2022-10-09T04:42:32.219Z,13.65
2022-10-09T04:47:35.479Z,14.88
2022-10-09T04:52:38.178Z,14.62
2022-10-09T04:57:40.919Z,12.78
2022-10-09T05:02:44.865Z,14.05
2022-10-09T05:07:47.638Z,14.85
2022-10-09T05:12:51.064Z,15.31
2022-10-09T05:17:54.259Z,14.81
2022-10-09T05:22:57.216Z,13.60
2022-10-09T05:28:00.852Z,14.92
2022-10-09T05:33:03.632Z,15.34
2022-10-09T05:38:06.361Z,13.60
2022-10-09T05:43:09.055Z,14.67
2022-10-09T05:48:11.985Z,15.49
2022-10-09T05:53:14.780Z,13.84
2022-10-09T05:58:17.481Z,14.36
2022-10-09T06:03:20.122Z,15.69
2022-10-09T06:08:22.798Z,14.47
2022-10-09T06:13:27.494Z,14.55
2022-10-09T06:18:30.206Z,15.68
2022-10-09T06:23:35.142Z,13.76
2022-10-09T06:28:37.976Z,14.69
2022-10-09T06:33:42.555Z,15.91
2022-10-09T06:38:45.366Z,14.86
2022-10-09T06:43:51.973Z,14.32
2022-10-09T06:48:55.087Z,16.09
2022-10-09T06:53:59.933Z,14.99
2022-10-09T06:59:05.076Z,13.82
2022-10-09T07:04:12.776Z,15.61
2022-10-09T07:09:16.489Z,16.03
2022-10-09T07:14:19.269Z,14.77
2022-10-09T07:19:22.052Z,16.36
2022-10-09T07:24:25.556Z,15.83
2022-10-09T07:29:28.261Z,14.62
2022-10-09T07:34:31.037Z,15.21
2022-10-09T07:39:35.581Z,16.55
2022-10-09T07:44:38.294Z,15.56
2022-10-09T07:49:41.006Z,14.80
2022-10-09T07:54:43.732Z,15.51
2022-10-09T07:59:46.556Z,16.89
2022-10-09T08:04:49.302Z,15.42
2022-10-09T08:09:52.440Z,15.70
2022-10-09T08:14:55.397Z,18.61
2022-10-09T08:19:58.671Z,18.50
2022-10-09T08:25:01.400Z,18.19
2022-10-09T08:30:04.581Z,17.29
2022-10-09T08:35:07.666Z,16.61
2022-10-09T08:40:18.938Z,16.52
2022-10-09T08:45:21.730Z,18.05
2022-10-09T08:50:35.914Z,17.09
2022-10-09T08:55:47.911Z,16.11
2022-10-09T09:00:59.994Z,15.65
2022-10-09T09:06:22.308Z,16.72
2022-10-09T09:11:46.910Z,18.11
2022-10-09T09:17:14.233Z,17.06
2022-10-09T09:22:17.260Z,16.41
2022-10-09T09:27:30.197Z,16.13
2022-10-09T09:32:33.847Z,17.33
2022-10-09T09:37:38.503Z,18.31
2022-10-09T09:42:43.103Z,17.23
2022-10-09T09:47:55.589Z,16.70
2022-10-09T09:53:02.864Z,16.20
2022-10-09T09:58:08.224Z,15.87
2022-10-09T10:03:17.949Z,15.84
2022-10-09T10:08:34.680Z,17.50
2022-10-09T10:13:46.029Z,17.26
2022-10-09T10:18:49.097Z,16.11
2022-10-09T10:24:03.867Z,15.38
2022-10-09T10:29:06.566Z,14.80
2022-10-09T10:34:18.746Z,14.47
2022-10-09T10:39:36.110Z,16.33
2022-10-09T10:44:52.457Z,16.02
2022-10-09T10:49:56.034Z,15.11
2022-10-09T10:55:34.491Z,14.79
2022-10-09T11:00:41.225Z,14.81
2022-10-09T11:05:52.602Z,14.95
2022-10-09T11:11:20.261Z,15.28
2022-10-09T11:16:35.568Z,17.15
2022-10-09T11:21:57.599Z,16.19
2022-10-09T11:27:26.339Z,15.30
2022-10-09T11:33:07.097Z,14.65
2022-10-09T11:38:31.913Z,14.24
2022-10-09T11:43:43.641Z,15.27
2022-10-09T11:49:09.277Z,16.57
2022-10-09T11:54:16.497Z,15.44
2022-10-09T11:59:42.153Z,14.80
2022-10-09T12:04:54.968Z,14.36
2022-10-09T12:10:21.185Z,14.13
2022-10-09T12:15:46.517Z,15.33
2022-10-09T12:20:50.811Z,16.93
2022-10-09T12:25:54.832Z,15.94
2022-10-09T12:31:05.038Z,15.47
2022-10-09T12:36:26.882Z,15.31
2022-10-09T12:41:34.792Z,15.24
2022-10-09T12:46:39.428Z,15.12
2022-10-09T12:51:53.845Z,14.97
2022-10-09T12:57:04.342Z,14.83
2022-10-09T13:02:18.810Z,14.75
2022-10-09T13:07:25.178Z,14.68
2022-10-09T13:12:29.820Z,14.65
2022-10-09T13:17:42.112Z,14.63
2022-10-09T13:23:00.301Z,14.58
2022-10-09T13:28:04.848Z,15.05
2022-10-09T13:33:14.572Z,16.74
2022-10-09T13:38:20.423Z,15.88
2022-10-09T13:43:26.782Z,15.27
2022-10-09T13:48:31.421Z,14.88
2022-10-09T13:53:35.477Z,14.61
2022-10-09T13:58:38.381Z,14.43
2022-10-09T14:03:41.343Z,14.30
2022-10-09T14:08:46.338Z,14.20
2022-10-09T14:13:49.136Z,14.06
2022-10-09T14:19:02.382Z,13.97
2022-10-09T14:24:08.334Z,13.92
2022-10-09T14:29:11.290Z,13.87
2022-10-09T14:34:15.401Z,13.82
2022-10-09T14:39:18.251Z,13.75
2022-10-09T14:44:21.359Z,15.48
2022-10-09T14:49:24.258Z,17.19
2022-10-09T14:54:30.508Z,15.75
2022-10-09T14:59:34.460Z,14.91
2022-10-09T15:04:37.203Z,14.38
2022-10-09T15:09:39.918Z,13.96
2022-10-09T15:14:42.692Z,13.60
2022-10-09T15:19:45.375Z,13.30
2022-10-09T15:24:48.283Z,13.03
2022-10-09T15:29:51.036Z,12.75
2022-10-09T15:34:53.720Z,13.77
2022-10-09T15:39:56.433Z,16.59
2022-10-09T15:44:59.128Z,15.42
2022-10-09T15:50:01.998Z,14.10
2022-10-09T15:55:05.699Z,13.35
2022-10-09T16:00:09.969Z,12.77
2022-10-09T16:05:12.659Z,12.29
2022-10-09T16:10:15.369Z,11.87
2022-10-09T16:15:18.285Z,11.49
2022-10-09T16:20:21.003Z,12.49
2022-10-09T16:25:23.713Z,15.42
2022-10-09T16:30:27.660Z,14.53
2022-10-09T16:35:30.437Z,13.05
2022-10-09T16:40:57.483Z,12.23
2022-10-09T16:45:56.551Z,11.62
2022-10-09T16:50:59.352Z,11.13
2022-10-09T16:56:11.518Z,10.71
2022-10-09T17:01:15.672Z,11.78
2022-10-09T17:06:23.871Z,14.84
2022-10-09T17:11:29.922Z,13.84
2022-10-09T17:16:36.002Z,12.26
2022-10-09T17:21:38.903Z,11.41
2022-10-09T17:26:42.050Z,10.82
2022-10-09T17:31:44.794Z,11.65
2022-10-09T17:36:47.843Z,14.71
2022-10-09T17:41:50.767Z,13.76
2022-10-09T17:46:54.160Z,12.16
2022-10-09T17:51:56.976Z,11.27
2022-10-09T17:57:02.274Z,10.65
2022-10-09T18:02:05.836Z,11.58
2022-10-09T18:07:10.852Z,14.62
2022-10-09T18:12:13.567Z,13.64
2022-10-09T18:17:16.301Z,11.98
2022-10-09T18:22:18.973Z,11.07
2022-10-09T18:27:24.010Z,11.83
2022-10-09T18:32:26.839Z,14.69
2022-10-09T18:37:29.633Z,13.28
2022-10-09T18:42:32.455Z,11.69
2022-10-09T18:47:36.382Z,12.16
2022-10-09T18:52:41.990Z,14.60
2022-10-09T18:57:47.956Z,12.90
2022-10-09T19:02:50.734Z,11.36
2022-10-09T19:07:53.423Z,10.47
2022-10-09T19:12:56.230Z,11.33
2022-10-09T19:17:58.971Z,14.30
2022-10-09T19:23:01.762Z,13.07
2022-10-09T19:28:04.448Z,11.37
2022-10-09T19:33:07.415Z,11.76
2022-10-09T19:38:10.076Z,14.32
2022-10-09T19:43:14.022Z,12.81
2022-10-09T19:48:18.308Z,11.24
2022-10-09T19:53:21.043Z,11.77
2022-10-09T19:58:23.818Z,14.38
2022-10-09T20:03:26.531Z,12.95
2022-10-09T20:08:29.615Z,11.25
2022-10-09T20:13:45.038Z,11.76
2022-10-09T20:18:47.840Z,14.35
2022-10-09T20:23:51.703Z,12.97
2022-10-09T20:28:54.696Z,11.17
2022-10-09T20:33:58.853Z,11.68
2022-10-09T20:39:05.273Z,14.17
2022-10-09T20:44:08.470Z,12.55
2022-10-09T20:49:13.021Z,10.95
2022-10-09T20:54:18.068Z,11.99
2022-10-09T20:59:20.893Z,14.21
2022-10-09T21:04:23.676Z,12.49
2022-10-09T21:09:29.666Z,10.89
2022-10-09T21:14:33.791Z,12.22
2022-10-09T21:19:36.470Z,13.96
2022-10-09T21:24:39.183Z,12.06
2022-10-09T21:29:41.976Z,10.64
2022-10-09T21:34:45.345Z,11.84
2022-10-09T21:39:48.098Z,13.81
2022-10-09T21:44:50.773Z,11.88
2022-10-09T21:49:53.605Z,10.35
2022-10-09T21:54:56.353Z,11.25
2022-10-09T21:59:59.018Z,13.52
2022-10-09T22:05:01.770Z,11.91
2022-10-09T22:10:06.625Z,10.32
2022-10-09T22:15:09.746Z,11.83
2022-10-09T22:20:13.310Z,12.96
2022-10-09T22:25:16.233Z,10.95
2022-10-09T22:30:18.912Z,10.97
2022-10-09T22:35:22.072Z,13.29
2022-10-09T22:40:24.826Z,11.78
2022-10-09T22:45:27.457Z,10.20
2022-10-09T22:50:30.363Z,11.96
2022-10-09T22:55:33.033Z,12.78
2022-10-09T23:00:37.082Z,10.56
2022-10-09T23:05:39.997Z,10.35
2022-10-09T23:10:42.767Z,12.68
2022-10-09T23:15:45.517Z,11.29
2022-10-09T23:20:48.502Z,9.73
2022-10-09T23:25:51.193Z,11.83
2022-10-09T23:30:53.871Z,12.50
2022-10-09T23:35:56.677Z,10.27
2022-10-09T23:41:01.952Z,10.33
2022-10-09T23:46:06.085Z,12.25
2022-10-09T23:51:09.741Z,10.33
2022-10-09T23:56:18.530Z,8.82
